Latest Coastal Weather Observations for Eucla

IDS60701

Issued at 9:31 pm CST Tuesday 28 April 2015 (issued every 10 minutes, with the page automatically refreshed every 10 minutes)

About coastal observations | Map of coastal stations | Coastal observations for SA | Marine services | Other Formats
Station Details ID: 011003 Name: EUCLA Lat: -31.68 Lon: 128.90 Height: 93.1 m
Data from the previous 72 hours. | See also: Recent months at Eucla
Date/Time
CST
Temp

°C
Wind Pressure Rain
since 9am
mm
Weather Cloud Vis
km
Sea
Height
m
Swell
Dir
 
Speed
knots
Gust
knots
hPa Trend Height
m
Period
s
Dir
28/09:30pm 14.1 E 6 7 1029.0 - 0.0 - - - - - - -
28/09:00pm 14.6 ESE 8 11 1028.8 - 0.0 - - - - - - -
28/08:30pm 14.7 ESE 9 14 1028.7 - 0.0 - - - - - - -
28/08:00pm 14.6 ESE 6 9 1028.3 - 0.0 - - - - - - -
28/07:30pm 14.6 ESE 6 9 1028.1 - 0.0 - - - - - - -
28/07:00pm 15.0 ESE 7 10 1027.9 - 0.0 - - - - - - -
28/06:30pm 15.2 ESE 7 12 1027.8 - 0.0 - - - - - - -
28/06:00pm 15.8 SE 7 12 1027.7 - 0.0 - - - - - - -
28/05:30pm 16.5 SE 8 12 1027.7 - 0.0 - - - - - - -
28/05:00pm 17.0 SE 10 14 1027.7 - 0.0 - - - - - - -
28/04:30pm 17.1 SSE 10 16 1027.6 - 0.0 Fine Mostly clear 40 - - - -
28/04:00pm 18.2 SE 11 16 1027.5 - 0.0 - - - - - - -
28/03:30pm 18.3 SE 10 16 1027.5 - 0.0 - - - - - - -
28/03:00pm 18.4 SE 9 15 1027.6 - 0.0 - - - - - - -
28/02:30pm 18.8 SE 10 16 1027.8 - 0.0 - - - - - - -
28/02:00pm 18.6 SE 10 14 1028.2 - 0.0 - - - - - - -
28/01:30pm 18.9 ESE 10 14 1028.7 - 0.0 - - - - - - -
28/01:00pm 17.6 SE 7 11 1029.2 - 0.0 - - - - - - -
28/12:30pm 18.8 SE 7 12 1029.9 - 0.0 - - - - - - -
28/12:00pm 17.6 ESE 8 10 1030.2 - 0.0 - - - - - - -
28/11:30am 17.2 ESE 7 11 1030.4 - 0.0 - - - - - - -
28/11:00am 18.1 ENE 6 10 1030.7 - 0.0 - - - - - - -
28/10:30am 16.8 ENE 7 11 1030.8 - 0.2 Fine Mostly cloudy 40 - - - -
28/10:00am 16.1 NE 7 9 1030.9 - 0.2 - - - - - - -
28/09:30am 15.4 NE 7 10 1030.9 - 0.2 - - - - - - -
28/09:00am 14.9 NNE 7 11 1030.7 - 0.2 - - - - - - -
28/08:30am 13.4 NNE 7 9 1030.5 - 0.2 - - - - - - -
28/08:00am 10.6 NNE 6 7 1030.6 - 0.2 - - - - - - -
28/07:30am 9.8 N 6 7 1030.5 - 0.2 - - - - - - -
28/07:00am 9.7 N 5 6 1030.2 - 0.2 - - - - - - -
28/06:30am 10.5 N 6 7 1030.1 - 0.2 - - - - - - -
28/06:00am 11.0 N 5 6 1030.3 - 0.2 - - - - - - -
28/05:30am 11.2 N 5 6 1030.2 - 0.2 - - - - - - -
28/05:00am 12.2 N 5 6 1029.9 - 0.2 - - - - - - -
28/04:30am 12.9 N 4 5 1030.0 - 0.2 - - - - - - -
28/04:00am 14.2 ENE 4 6 1030.0 - 0.2 - - - - - - -
28/03:30am 14.7 ESE 5 6 1029.8 - 0.2 - - - - - - -
28/03:00am 15.0 ESE 6 8 1029.8 - 0.2 - - - - - - -
28/02:30am 14.9 E 5 7 1029.9 - 0.2 - - - - - - -
28/02:00am 15.3 ESE 6 9 1029.9 - 0.2 - - - - - - -
28/01:30am 15.3 ESE 8 12 1030.0 - 0.2 - - - - - - -
28/01:00am 15.0 ESE 7 11 1030.0 - 0.2 - - - - - - -
28/12:30am 15.4 ESE 7 13 1030.0 - 0.2 - - - - - - -
28/12:00am 15.7 ESE 8 13 1030.0 - 0.2 - - - - - - -
 
Date/Time
CST
Temp

°C
Wind Pressure Rain
since 9am
mm
Weather Cloud Vis
km
Sea
Height
m
Swell
Dir
 
Speed
knots
Gust
knots
hPa Trend Height
m
Period
s
Dir
27/11:30pm 15.2 ESE 5 8 1030.3 - 0.2 - - - - - - -
27/11:00pm 15.1 ESE 6 8 1030.3 - 0.2 - - - - - - -
27/10:30pm 15.6 ESE 8 10 1030.4 - 0.2 - - - - - - -
27/10:00pm 15.4 ESE 7 12 1030.2 - 0.2 - - - - - - -
27/09:30pm 15.7 SE 8 12 1030.1 - 0.2 - - - - - - -
27/09:00pm 15.2 ESE 7 8 1030.0 - 0.2 - - - - - - -
27/08:30pm 15.1 ESE 7 10 1029.9 - 0.2 - - - - - - -
27/08:00pm 15.3 ESE 7 10 1029.8 - 0.2 - - - - - - -
27/07:30pm 15.3 ESE 8 12 1029.6 - 0.2 - - - - - - -
27/07:00pm 14.9 ESE 7 10 1029.5 - 0.2 - - - - - - -
27/06:30pm 15.1 ESE 7 9 1029.4 - 0.2 - - - - - - -
27/06:00pm 15.9 SE 8 13 1029.4 - 0.2 - - - - - - -
27/05:30pm 16.7 SE 9 13 1029.4 - 0.2 - - - - - - -
27/05:00pm 17.5 SE 10 15 1029.3 - 0.2 - - - - - - -
27/04:30pm 18.0 SE 9 13 1029.2 - 0.2 Fine Mostly clear 40 - - - -
27/04:00pm 18.0 SE 11 15 1029.1 - 0.2 - - - - - - -
27/03:30pm 18.4 SE 10 15 1029.0 - 0.2 - - - - - - -
27/03:00pm 18.4 SE 9 14 1028.9 - 0.2 - - - - - - -
27/02:30pm 18.7 SE 9 15 1028.9 - 0.2 - - - - - - -
27/02:00pm 17.6 SE 9 13 1029.1 - 0.2 - - - - - - -
27/01:30pm 17.1 SE 7 11 1029.3 - 0.2 - - - - - - -
27/01:00pm 17.6 SSE 8 12 1029.8 - 0.2 - - - - - - -
27/12:30pm 17.7 SE 7 11 1030.2 - 0.2 - - - - - - -
27/12:00pm 17.3 SSE 5 8 1030.7 - 0.0 - - - - - - -
27/11:30am 16.3 S 5 7 1031.0 - 0.0 - - - - - - -
27/11:00am 16.2 SE 4 6 1031.0 - 0.0 - - - - - - -
27/10:30am 16.0 ENE 4 6 1031.0 - 5.8 Fine Mostly cloudy 40 - - - -
27/10:00am 16.1 NE 2 4 1030.8 - 5.8 - - - - - - -
27/09:30am 14.9 CALM 0 0 1030.6 - 5.8 - - - - - - -
27/09:00am 13.8 N 3 4 1030.4 - 5.8 - - - - - - -
27/08:30am 13.0 N 4 5 1030.0 - 5.8 - - - - - - -
27/08:00am 12.7 WNW 4 6 1029.9 - 5.8 - - - - - - -
27/07:30am 12.6 SSW 6 9 1029.5 - 5.4 - - - - - - -
27/07:00am 12.2 N 5 5 1029.0 - 5.4 - - - - - - -
27/06:30am 12.3 N 5 5 1028.7 - 5.4 - - - - - - -
27/06:00am 12.4 N 5 6 1028.6 - 5.4 - - - - - - -
27/05:30am 12.6 NNE 6 7 1028.5 - 5.4 - - - - - - -
27/05:00am 12.6 NNE 5 6 1028.3 - 5.4 - - - - - - -
27/04:30am 12.7 NNE 5 6 1028.2 - 5.4 - - - - - - -
27/04:00am 12.7 N 5 6 1028.2 - 5.4 - - - - - - -
27/03:30am 12.9 NNE 5 6 1028.6 - 5.4 - - - - - - -
27/03:00am 12.8 ESE 6 9 1028.8 - 5.0 - - - - - - -
27/02:30am 12.4 N 4 7 1028.6 - 3.4 - - - - - - -
27/02:00am 11.8 NNE 5 6 1028.4 - 3.4 - - - - - - -
27/01:30am 12.0 NNE 5 6 1028.4 - 3.4 - - - - - - -
27/01:00am 12.5 N 5 6 1028.4 - 3.4 - - - - - - -
27/12:30am 12.8 NNE 5 6 1028.5 - 3.4 - - - - - - -
27/12:00am 13.3 NE 5 6 1028.7 - 3.4 - - - - - - -
 
Date/Time
CST
Temp

°C
Wind Pressure Rain
since 9am
mm
Weather Cloud Vis
km
Sea
Height
m
Swell
Dir
 
Speed
knots
Gust
knots
hPa Trend Height
m
Period
s
Dir
26/11:30pm 13.6 SE 1 5 1029.0 - 3.4 - - - - - - -
26/11:00pm 13.9 SE 6 9 1029.3 - 0.4 - - - - - - -
26/10:30pm 14.2 SE 6 9 1029.2 - 0.0 - - - - - - -
26/10:00pm 14.2 SE 8 13 1029.2 - 0.0 - - - - - - -
26/09:30pm 14.9 SE 8 15 1029.1 - 0.0 - - - - - - -
26/09:00pm 14.8 SE 8 13 1028.9 - 0.0 - - - - - - -
26/08:30pm 14.5 SE 9 13 1028.7 - 0.0 - - - - - - -
26/08:00pm 14.3 SE 7 11 1028.5 - 0.0 - - - - - - -
26/07:30pm 14.5 ESE 7 10 1028.4 - 0.0 - - - - - - -
26/07:00pm 14.8 SE 7 10 1028.1 - 0.0 - - - - - - -
26/06:30pm 15.0 SE 7 9 1027.9 - 0.0 - - - - - - -
26/06:00pm 15.5 SE 8 11 1027.8 - 0.0 - - - - - - -
26/05:30pm 16.1 SE 10 15 1027.6 - 0.0 - - - - - - -
26/05:00pm 16.0 SE 9 13 1027.4 - 0.0 - - - - - - -
26/04:30pm 16.7 SSE 9 14 1027.2 - 0.0 Fine Partly cloudy 40 - - - -
26/04:00pm 17.3 SSE 9 14 1027.0 - 0.0 - - - - - - -
26/03:30pm 17.8 SSE 8 14 1027.0 - 0.0 - - - - - - -
26/03:00pm 17.8 SSE 8 11 1027.1 - 0.0 - - - - - - -
26/02:30pm 17.8 SE 7 12 1026.9 - 0.0 - - - - - - -
26/02:00pm 17.6 SSE 9 15 1027.0 - 0.0 - - - - - - -
26/01:30pm 17.5 SE 7 10 1027.3 - 0.0 - - - - - - -
26/01:00pm 17.4 SE 8 13 1027.6 - 0.0 - - - - - - -
26/12:30pm 17.9 SSE 8 12 1027.9 - 0.0 - - - - - - -
26/12:00pm 18.9 SE 6 10 1028.2 - 0.0 - - - - - - -
26/11:30am 18.4 SE 5 9 1028.3 - 0.0 - - - - - - -
26/11:00am 16.9 SSE 3 5 1028.5 - 0.0 - - - - - - -
26/10:30am 16.5 NW 4 5 1028.5 - 5.8 Fine Mostly cloudy 40 - - - -
26/10:00am 15.0 N 5 8 1028.6 - 5.8 - - - - - - -
26/09:30am 13.9 WNW 4 6 1028.5 - 5.8 - - - - - - -
26/09:00am 13.6 WNW 5 8 1028.3 - 5.8 - - - - - - -
26/08:30am 12.3 NNW 4 5 1027.9 - 5.4 - - - - - - -
26/08:00am 11.7 NNW 4 5 1027.6 - 5.4 - - - - - - -
26/07:30am 10.8 NW 4 4 1027.2 - 5.4 - - - - - - -
26/07:00am 10.7 NNW 4 5 1026.9 - 5.4 - - - - - - -
26/06:30am 11.6 CALM 0 0 1026.8 - 5.4 - - - - - - -
26/06:00am 12.1 WNW 3 4 1026.9 - 5.4 - - - - - - -
26/05:30am 12.2 WSW 5 6 1026.7 - 5.4 - - - - - - -
26/05:00am 12.1 SW 5 7 1026.5 - 4.2 - - - - - - -
26/04:30am 11.3 WSW 5 6 1026.3 - 3.6 - - - - - - -
26/04:00am 11.8 WSW 5 6 1026.3 - 3.6 - - - - - - -
26/03:30am 12.6 SSW 3 5 1026.2 - 3.6 - - - - - - -
26/03:00am 13.1 S 7 10 1026.2 - 3.6 - - - - - - -
26/02:30am 13.5 S 5 8 1026.3 - 3.6 - - - - - - -
26/02:00am 12.7 SSW 3 5 1026.2 - 3.6 - - - - - - -
26/01:30am 12.3 SW 4 6 1026.2 - 3.6 - - - - - - -
26/01:00am 12.4 WNW 4 5 1026.4 - 3.6 - - - - - - -
26/12:30am 12.6 NW 4 5 1026.2 - 3.6 - - - - - - -
26/12:00am 12.8 SW 4 6 1026.4 - 3.4 - - - - - - -
 
Date/Time
CST
Temp

°C
Wind Pressure Rain
since 9am
mm
Weather Cloud Vis
km
Sea
Height
m
Swell
Dir
 
Speed
knots
Gust
knots
hPa Trend Height
m
Period
s
Dir
25/11:30pm 12.5 W 5 6 1026.5 - 2.8 - - - - - - -

Other Formats:

Comma delimited format used in spreadsheet applications
http://www.bom.gov.au/fwo/IDS60701/IDS60701.94647.axf

JavaScript Object Notation format (JSON) in row-major order
http://www.bom.gov.au/fwo/IDS60701/IDS60701.94647.json